sensor_id;sensor_type;location;lat;lon;timestamp;P1;durP1;ratioP1;P2;durP2;ratioP2
43449;SDS011;29041;42.266;23.110;2022-12-07T00:00:23;43.78;;;17.67;;
43449;SDS011;29041;42.266;23.110;2022-12-07T00:03:10;19.83;;;8.35;;
43449;SDS011;29041;42.266;23.110;2022-12-07T00:05:59;26.88;;;10.38;;
43449;SDS011;29041;42.266;23.110;2022-12-07T00:08:46;68.10;;;22.75;;
43449;SDS011;29041;42.266;23.110;2022-12-07T00:11:34;27.17;;;13.95;;
43449;SDS011;29041;42.266;23.110;2022-12-07T00:14:21;22.85;;;10.05;;
43449;SDS011;29041;42.266;23.110;2022-12-07T00:17:10;38.78;;;14.32;;
43449;SDS011;29041;42.266;23.110;2022-12-07T00:19:57;44.83;;;15.20;;
43449;SDS011;29041;42.266;23.110;2022-12-07T00:22:44;20.90;;;10.20;;
43449;SDS011;29041;42.266;23.110;2022-12-07T00:25:31;18.83;;;7.95;;
43449;SDS011;29041;42.266;23.110;2022-12-07T00:28:18;16.08;;;7.82;;
43449;SDS011;29041;42.266;23.110;2022-12-07T00:31:07;17.35;;;7.97;;
43449;SDS011;29041;42.266;23.110;2022-12-07T00:33:58;17.30;;;8.10;;
43449;SDS011;29041;42.266;23.110;2022-12-07T00:36:46;17.90;;;8.27;;
43449;SDS011;29041;42.266;23.110;2022-12-07T00:39:33;15.38;;;7.53;;
43449;SDS011;29041;42.266;23.110;2022-12-07T00:42:20;15.82;;;7.47;;
43449;SDS011;29041;42.266;23.110;2022-12-07T00:45:10;20.83;;;7.95;;
43449;SDS011;29041;42.266;23.110;2022-12-07T00:47:58;14.57;;;7.10;;
43449;SDS011;29041;42.266;23.110;2022-12-07T00:50:47;15.82;;;7.63;;
43449;SDS011;29041;42.266;23.110;2022-12-07T00:53:34;15.32;;;6.78;;
43449;SDS011;29041;42.266;23.110;2022-12-07T00:56:23;18.92;;;8.40;;
43449;SDS011;29041;42.266;23.110;2022-12-07T00:59:12;17.65;;;9.90;;
43449;SDS011;29041;42.266;23.110;2022-12-07T01:02:01;14.93;;;7.63;;
43449;SDS011;29041;42.266;23.110;2022-12-07T01:04:48;16.48;;;7.68;;
43449;SDS011;29041;42.266;23.110;2022-12-07T01:07:37;20.45;;;7.82;;
43449;SDS011;29041;42.266;23.110;2022-12-07T01:10:25;30.67;;;12.88;;
43449;SDS011;29041;42.266;23.110;2022-12-07T01:13:13;38.55;;;18.55;;
43449;SDS011;29041;42.266;23.110;2022-12-07T01:16:01;64.60;;;27.75;;
43449;SDS011;29041;42.266;23.110;2022-12-07T01:18:51;62.72;;;27.35;;
43449;SDS011;29041;42.266;23.110;2022-12-07T01:21:39;50.20;;;21.88;;
43449;SDS011;29041;42.266;23.110;2022-12-07T01:24:28;28.90;;;12.38;;
43449;SDS011;29041;42.266;23.110;2022-12-07T01:27:15;28.35;;;12.50;;
43449;SDS011;29041;42.266;23.110;2022-12-07T01:30:04;35.75;;;15.65;;
43449;SDS011;29041;42.266;23.110;2022-12-07T01:32:53;16.20;;;9.35;;
43449;SDS011;29041;42.266;23.110;2022-12-07T01:35:41;19.60;;;9.40;;
43449;SDS011;29041;42.266;23.110;2022-12-07T01:38:29;13.48;;;7.78;;
43449;SDS011;29041;42.266;23.110;2022-12-07T01:41:18;17.08;;;8.32;;
43449;SDS011;29041;42.266;23.110;2022-12-07T01:44:14;15.55;;;7.20;;
43449;SDS011;29041;42.266;23.110;2022-12-07T01:47:04;12.18;;;5.97;;
43449;SDS011;29041;42.266;23.110;2022-12-07T01:49:51;10.15;;;5.55;;
43449;SDS011;29041;42.266;23.110;2022-12-07T01:52:48;14.85;;;6.80;;
43449;SDS011;29041;42.266;23.110;2022-12-07T01:55:40;12.55;;;6.05;;
43449;SDS011;29041;42.266;23.110;2022-12-07T01:58:32;15.65;;;9.98;;
43449;SDS011;29041;42.266;23.110;2022-12-07T02:01:24;10.23;;;6.53;;
43449;SDS011;29041;42.266;23.110;2022-12-07T02:04:12;11.38;;;6.28;;
43449;SDS011;29041;42.266;23.110;2022-12-07T02:07:00;13.05;;;7.38;;
43449;SDS011;29041;42.266;23.110;2022-12-07T02:09:47;13.25;;;6.45;;
43449;SDS011;29041;42.266;23.110;2022-12-07T02:12:34;13.13;;;7.22;;
43449;SDS011;29041;42.266;23.110;2022-12-07T02:15:24;14.60;;;6.70;;
43449;SDS011;29041;42.266;23.110;2022-12-07T02:18:17;10.95;;;5.82;;
43449;SDS011;29041;42.266;23.110;2022-12-07T02:21:18;13.52;;;7.65;;
43449;SDS011;29041;42.266;23.110;2022-12-07T02:24:16;14.88;;;7.65;;
43449;SDS011;29041;42.266;23.110;2022-12-07T02:27:34;13.13;;;7.32;;
43449;SDS011;29041;42.266;23.110;2022-12-07T02:30:28;18.55;;;8.90;;
43449;SDS011;29041;42.266;23.110;2022-12-07T02:33:22;23.35;;;9.80;;
43449;SDS011;29041;42.266;23.110;2022-12-07T02:36:13;20.65;;;10.10;;
43449;SDS011;29041;42.266;23.110;2022-12-07T02:39:06;15.40;;;7.72;;
43449;SDS011;29041;42.266;23.110;2022-12-07T02:42:02;16.70;;;8.13;;
43449;SDS011;29041;42.266;23.110;2022-12-07T02:44:58;17.70;;;8.95;;
43449;SDS011;29041;42.266;23.110;2022-12-07T02:47:50;15.23;;;7.45;;
43449;SDS011;29041;42.266;23.110;2022-12-07T02:50:43;19.23;;;8.05;;
43449;SDS011;29041;42.266;23.110;2022-12-07T02:53:31;15.52;;;7.55;;
43449;SDS011;29041;42.266;23.110;2022-12-07T02:56:21;12.52;;;6.35;;
43449;SDS011;29041;42.266;23.110;2022-12-07T02:59:20;11.35;;;5.63;;
43449;SDS011;29041;42.266;23.110;2022-12-07T03:02:17;10.88;;;6.25;;
43449;SDS011;29041;42.266;23.110;2022-12-07T03:08:50;14.82;;;8.70;;
43449;SDS011;29041;42.266;23.110;2022-12-07T03:11:44;13.85;;;7.93;;
43449;SDS011;29041;42.266;23.110;2022-12-07T03:14:35;17.15;;;6.85;;
43449;SDS011;29041;42.266;23.110;2022-12-07T03:17:29;11.20;;;4.97;;
43449;SDS011;29041;42.266;23.110;2022-12-07T03:20:21;9.10;;;5.82;;
43449;SDS011;29041;42.266;23.110;2022-12-07T03:23:11;10.50;;;5.00;;
43449;SDS011;29041;42.266;23.110;2022-12-07T03:26:03;8.07;;;5.88;;
43449;SDS011;29041;42.266;23.110;2022-12-07T03:28:54;8.45;;;4.88;;
43449;SDS011;29041;42.266;23.110;2022-12-07T03:31:47;10.05;;;5.20;;
43449;SDS011;29041;42.266;23.110;2022-12-07T03:34:40;13.35;;;5.45;;
43449;SDS011;29041;42.266;23.110;2022-12-07T03:37:34;12.20;;;5.20;;
43449;SDS011;29041;42.266;23.110;2022-12-07T03:40:26;10.75;;;5.72;;
43449;SDS011;29041;42.266;23.110;2022-12-07T03:43:19;12.95;;;6.32;;
43449;SDS011;29041;42.266;23.110;2022-12-07T03:46:07;11.80;;;6.28;;
43449;SDS011;29041;42.266;23.110;2022-12-07T03:51:52;12.68;;;5.50;;
43449;SDS011;29041;42.266;23.110;2022-12-07T03:54:45;14.35;;;7.63;;
43449;SDS011;29041;42.266;23.110;2022-12-07T03:57:38;14.40;;;7.32;;
43449;SDS011;29041;42.266;23.110;2022-12-07T04:00:30;14.63;;;7.07;;
43449;SDS011;29041;42.266;23.110;2022-12-07T04:03:18;13.05;;;6.50;;
43449;SDS011;29041;42.266;23.110;2022-12-07T04:06:05;11.02;;;6.45;;
43449;SDS011;29041;42.266;23.110;2022-12-07T04:08:55;13.13;;;7.75;;
43449;SDS011;29041;42.266;23.110;2022-12-07T04:11:52;14.88;;;7.30;;
43449;SDS011;29041;42.266;23.110;2022-12-07T04:14:40;15.48;;;8.25;;
43449;SDS011;29041;42.266;23.110;2022-12-07T04:17:29;24.02;;;11.85;;
43449;SDS011;29041;42.266;23.110;2022-12-07T04:20:28;17.02;;;9.82;;
43449;SDS011;29041;42.266;23.110;2022-12-07T04:23:16;20.02;;;10.20;;
43449;SDS011;29041;42.266;23.110;2022-12-07T04:26:04;18.02;;;8.07;;
43449;SDS011;29041;42.266;23.110;2022-12-07T04:28:52;11.32;;;6.55;;
43449;SDS011;29041;42.266;23.110;2022-12-07T04:31:39;14.45;;;7.28;;
43449;SDS011;29041;42.266;23.110;2022-12-07T04:34:27;15.05;;;7.53;;
43449;SDS011;29041;42.266;23.110;2022-12-07T04:37:15;18.65;;;8.95;;
43449;SDS011;29041;42.266;23.110;2022-12-07T04:40:04;20.00;;;11.13;;
43449;SDS011;29041;42.266;23.110;2022-12-07T04:42:52;22.80;;;11.82;;
43449;SDS011;29041;42.266;23.110;2022-12-07T04:45:40;16.83;;;9.80;;
43449;SDS011;29041;42.266;23.110;2022-12-07T04:48:32;14.25;;;8.80;;
43449;SDS011;29041;42.266;23.110;2022-12-07T04:51:23;16.63;;;9.75;;
43449;SDS011;29041;42.266;23.110;2022-12-07T04:54:12;16.08;;;9.10;;
43449;SDS011;29041;42.266;23.110;2022-12-07T04:57:01;27.27;;;11.77;;
43449;SDS011;29041;42.266;23.110;2022-12-07T04:59:49;21.13;;;10.73;;
43449;SDS011;29041;42.266;23.110;2022-12-07T05:02:36;30.20;;;12.50;;
43449;SDS011;29041;42.266;23.110;2022-12-07T05:05:23;32.47;;;12.98;;
43449;SDS011;29041;42.266;23.110;2022-12-07T05:08:12;28.63;;;12.45;;
43449;SDS011;29041;42.266;23.110;2022-12-07T05:11:14;35.72;;;14.25;;
43449;SDS011;29041;42.266;23.110;2022-12-07T05:14:17;23.02;;;12.93;;
43449;SDS011;29041;42.266;23.110;2022-12-07T05:17:05;30.52;;;15.68;;
43449;SDS011;29041;42.266;23.110;2022-12-07T05:19:52;31.45;;;12.55;;
43449;SDS011;29041;42.266;23.110;2022-12-07T05:22:39;21.80;;;11.32;;
43449;SDS011;29041;42.266;23.110;2022-12-07T05:25:29;22.35;;;10.52;;
43449;SDS011;29041;42.266;23.110;2022-12-07T05:28:17;30.45;;;12.00;;
43449;SDS011;29041;42.266;23.110;2022-12-07T05:31:04;19.75;;;11.27;;
43449;SDS011;29041;42.266;23.110;2022-12-07T05:33:52;26.20;;;11.05;;
43449;SDS011;29041;42.266;23.110;2022-12-07T05:36:42;16.67;;;9.13;;
43449;SDS011;29041;42.266;23.110;2022-12-07T05:39:36;26.70;;;11.50;;
43449;SDS011;29041;42.266;23.110;2022-12-07T05:42:27;21.38;;;10.25;;
43449;SDS011;29041;42.266;23.110;2022-12-07T05:45:18;28.23;;;11.82;;
43449;SDS011;29041;42.266;23.110;2022-12-07T05:48:06;24.70;;;12.05;;
43449;SDS011;29041;42.266;23.110;2022-12-07T05:50:54;22.95;;;11.27;;
43449;SDS011;29041;42.266;23.110;2022-12-07T05:53:41;25.85;;;12.95;;
43449;SDS011;29041;42.266;23.110;2022-12-07T05:56:29;42.75;;;21.65;;
43449;SDS011;29041;42.266;23.110;2022-12-07T05:59:18;31.35;;;16.05;;
43449;SDS011;29041;42.266;23.110;2022-12-07T06:02:13;36.92;;;16.45;;
43449;SDS011;29041;42.266;23.110;2022-12-07T06:05:03;33.35;;;14.82;;
43449;SDS011;29041;42.266;23.110;2022-12-07T06:07:50;32.25;;;14.40;;
43449;SDS011;29041;42.266;23.110;2022-12-07T06:10:38;26.58;;;11.80;;
43449;SDS011;29041;42.266;23.110;2022-12-07T06:13:25;27.33;;;12.38;;
43449;SDS011;29041;42.266;23.110;2022-12-07T06:16:12;24.08;;;12.55;;
43449;SDS011;29041;42.266;23.110;2022-12-07T06:18:59;24.88;;;13.77;;
43449;SDS011;29041;42.266;23.110;2022-12-07T06:21:46;34.85;;;17.65;;
43449;SDS011;29041;42.266;23.110;2022-12-07T06:24:34;41.35;;;20.42;;
43449;SDS011;29041;42.266;23.110;2022-12-07T06:27:22;42.17;;;21.50;;
43449;SDS011;29041;42.266;23.110;2022-12-07T06:30:09;35.70;;;18.27;;
43449;SDS011;29041;42.266;23.110;2022-12-07T06:32:58;33.38;;;20.80;;
43449;SDS011;29041;42.266;23.110;2022-12-07T06:35:45;31.85;;;17.35;;
43449;SDS011;29041;42.266;23.110;2022-12-07T06:38:32;29.13;;;14.65;;
43449;SDS011;29041;42.266;23.110;2022-12-07T06:41:19;32.13;;;15.88;;
43449;SDS011;29041;42.266;23.110;2022-12-07T06:44:07;35.03;;;15.38;;
43449;SDS011;29041;42.266;23.110;2022-12-07T06:46:55;26.42;;;14.80;;
43449;SDS011;29041;42.266;23.110;2022-12-07T06:49:43;39.78;;;19.13;;
43449;SDS011;29041;42.266;23.110;2022-12-07T06:52:30;49.25;;;21.15;;
43449;SDS011;29041;42.266;23.110;2022-12-07T06:55:21;48.25;;;23.08;;
43449;SDS011;29041;42.266;23.110;2022-12-07T06:58:08;47.42;;;23.08;;
43449;SDS011;29041;42.266;23.110;2022-12-07T07:00:55;25.75;;;12.48;;
43449;SDS011;29041;42.266;23.110;2022-12-07T07:03:43;27.65;;;15.05;;
43449;SDS011;29041;42.266;23.110;2022-12-07T07:06:32;23.08;;;12.40;;
43449;SDS011;29041;42.266;23.110;2022-12-07T07:09:19;21.98;;;10.98;;
43449;SDS011;29041;42.266;23.110;2022-12-07T07:12:07;21.33;;;12.85;;
43449;SDS011;29041;42.266;23.110;2022-12-07T07:14:54;25.80;;;14.07;;
43449;SDS011;29041;42.266;23.110;2022-12-07T07:17:41;27.98;;;14.27;;
43449;SDS011;29041;42.266;23.110;2022-12-07T07:20:29;27.55;;;15.00;;
43449;SDS011;29041;42.266;23.110;2022-12-07T07:23:17;31.38;;;15.90;;
43449;SDS011;29041;42.266;23.110;2022-12-07T07:26:05;30.20;;;14.82;;
43449;SDS011;29041;42.266;23.110;2022-12-07T07:28:52;46.95;;;20.63;;
43449;SDS011;29041;42.266;23.110;2022-12-07T07:31:39;24.67;;;13.40;;
43449;SDS011;29041;42.266;23.110;2022-12-07T07:34:26;23.02;;;11.50;;
43449;SDS011;29041;42.266;23.110;2022-12-07T07:37:13;37.05;;;14.85;;
43449;SDS011;29041;42.266;23.110;2022-12-07T07:40:02;33.40;;;10.55;;
43449;SDS011;29041;42.266;23.110;2022-12-07T07:42:49;22.48;;;7.93;;
43449;SDS011;29041;42.266;23.110;2022-12-07T07:45:37;12.02;;;5.78;;
43449;SDS011;29041;42.266;23.110;2022-12-07T07:48:25;16.35;;;5.20;;
43449;SDS011;29041;42.266;23.110;2022-12-07T07:51:13;9.55;;;5.60;;
43449;SDS011;29041;42.266;23.110;2022-12-07T07:54:00;12.40;;;6.32;;
43449;SDS011;29041;42.266;23.110;2022-12-07T07:56:49;10.05;;;5.50;;
43449;SDS011;29041;42.266;23.110;2022-12-07T07:59:36;9.80;;;4.72;;
43449;SDS011;29041;42.266;23.110;2022-12-07T08:02:24;12.00;;;5.95;;
43449;SDS011;29041;42.266;23.110;2022-12-07T08:05:11;12.45;;;6.70;;
43449;SDS011;29041;42.266;23.110;2022-12-07T08:07:58;17.02;;;9.90;;
43449;SDS011;29041;42.266;23.110;2022-12-07T08:10:45;16.08;;;8.20;;
43449;SDS011;29041;42.266;23.110;2022-12-07T08:13:34;11.57;;;7.60;;
43449;SDS011;29041;42.266;23.110;2022-12-07T08:16:22;12.93;;;6.85;;
43449;SDS011;29041;42.266;23.110;2022-12-07T08:19:09;15.55;;;7.40;;
43449;SDS011;29041;42.266;23.110;2022-12-07T08:21:56;15.18;;;6.95;;
43449;SDS011;29041;42.266;23.110;2022-12-07T08:24:44;12.15;;;6.57;;
43449;SDS011;29041;42.266;23.110;2022-12-07T08:27:31;9.98;;;6.32;;
43449;SDS011;29041;42.266;23.110;2022-12-07T08:30:20;13.50;;;8.07;;
43449;SDS011;29041;42.266;23.110;2022-12-07T08:33:07;17.98;;;9.43;;
43449;SDS011;29041;42.266;23.110;2022-12-07T08:35:59;39.53;;;15.57;;
43449;SDS011;29041;42.266;23.110;2022-12-07T08:38:47;17.20;;;9.02;;
43449;SDS011;29041;42.266;23.110;2022-12-07T08:41:34;11.27;;;6.85;;
43449;SDS011;29041;42.266;23.110;2022-12-07T08:44:21;12.43;;;6.93;;
43449;SDS011;29041;42.266;23.110;2022-12-07T08:47:10;12.82;;;8.77;;
43449;SDS011;29041;42.266;23.110;2022-12-07T08:49:58;13.60;;;6.20;;
43449;SDS011;29041;42.266;23.110;2022-12-07T08:52:49;9.50;;;5.97;;
43449;SDS011;29041;42.266;23.110;2022-12-07T08:55:40;20.23;;;7.90;;
43449;SDS011;29041;42.266;23.110;2022-12-07T08:58:27;13.98;;;6.68;;
43449;SDS011;29041;42.266;23.110;2022-12-07T09:01:14;12.05;;;6.95;;
43449;SDS011;29041;42.266;23.110;2022-12-07T09:04:03;12.60;;;7.13;;
43449;SDS011;29041;42.266;23.110;2022-12-07T09:06:50;17.45;;;7.32;;
43449;SDS011;29041;42.266;23.110;2022-12-07T09:09:37;9.68;;;5.97;;
43449;SDS011;29041;42.266;23.110;2022-12-07T09:12:25;11.93;;;6.22;;
43449;SDS011;29041;42.266;23.110;2022-12-07T09:15:12;14.18;;;6.97;;
43449;SDS011;29041;42.266;23.110;2022-12-07T09:17:59;8.18;;;5.10;;
43449;SDS011;29041;42.266;23.110;2022-12-07T09:20:47;8.13;;;5.25;;
43449;SDS011;29041;42.266;23.110;2022-12-07T09:23:35;11.38;;;6.10;;
43449;SDS011;29041;42.266;23.110;2022-12-07T09:26:22;9.90;;;4.78;;
43449;SDS011;29041;42.266;23.110;2022-12-07T09:29:09;9.48;;;4.95;;
43449;SDS011;29041;42.266;23.110;2022-12-07T09:31:56;7.32;;;4.18;;
43449;SDS011;29041;42.266;23.110;2022-12-07T09:34:43;10.20;;;4.72;;
43449;SDS011;29041;42.266;23.110;2022-12-07T09:37:32;9.15;;;4.88;;
43449;SDS011;29041;42.266;23.110;2022-12-07T09:40:22;10.18;;;5.60;;
43449;SDS011;29041;42.266;23.110;2022-12-07T09:43:12;10.68;;;5.22;;
43449;SDS011;29041;42.266;23.110;2022-12-07T09:46:01;9.32;;;4.13;;
43449;SDS011;29041;42.266;23.110;2022-12-07T09:48:49;18.00;;;3.60;;
43449;SDS011;29041;42.266;23.110;2022-12-07T09:51:37;8.52;;;2.80;;
43449;SDS011;29041;42.266;23.110;2022-12-07T09:54:26;5.10;;;3.38;;
43449;SDS011;29041;42.266;23.110;2022-12-07T09:57:15;5.32;;;3.10;;
43449;SDS011;29041;42.266;23.110;2022-12-07T10:00:06;6.72;;;3.10;;
43449;SDS011;29041;42.266;23.110;2022-12-07T10:02:57;9.75;;;2.58;;
43449;SDS011;29041;42.266;23.110;2022-12-07T10:05:46;5.00;;;2.63;;
43449;SDS011;29041;42.266;23.110;2022-12-07T10:08:36;6.03;;;2.63;;
43449;SDS011;29041;42.266;23.110;2022-12-07T10:11:24;8.55;;;2.70;;
43449;SDS011;29041;42.266;23.110;2022-12-07T10:14:12;2.97;;;2.08;;
43449;SDS011;29041;42.266;23.110;2022-12-07T10:17:00;3.88;;;2.25;;
43449;SDS011;29041;42.266;23.110;2022-12-07T10:19:47;3.28;;;1.33;;
43449;SDS011;29041;42.266;23.110;2022-12-07T10:22:35;4.70;;;1.98;;
43449;SDS011;29041;42.266;23.110;2022-12-07T10:25:22;4.97;;;1.70;;
43449;SDS011;29041;42.266;23.110;2022-12-07T10:28:33;7.25;;;2.03;;
43449;SDS011;29041;42.266;23.110;2022-12-07T10:31:39;3.22;;;2.00;;
43449;SDS011;29041;42.266;23.110;2022-12-07T10:34:32;3.23;;;1.80;;
43449;SDS011;29041;42.266;23.110;2022-12-07T10:37:20;5.88;;;2.05;;
43449;SDS011;29041;42.266;23.110;2022-12-07T10:40:23;4.97;;;1.70;;
43449;SDS011;29041;42.266;23.110;2022-12-07T10:43:17;3.80;;;1.75;;
43449;SDS011;29041;42.266;23.110;2022-12-07T10:46:17;5.07;;;1.60;;
43449;SDS011;29041;42.266;23.110;2022-12-07T10:49:25;5.20;;;1.60;;
43449;SDS011;29041;42.266;23.110;2022-12-07T10:52:45;6.28;;;2.38;;
43449;SDS011;29041;42.266;23.110;2022-12-07T10:55:53;2.08;;;1.73;;
43449;SDS011;29041;42.266;23.110;2022-12-07T10:58:53;5.05;;;1.38;;
43449;SDS011;29041;42.266;23.110;2022-12-07T11:01:51;6.53;;;1.40;;
43449;SDS011;29041;42.266;23.110;2022-12-07T11:04:50;1.88;;;1.35;;
43449;SDS011;29041;42.266;23.110;2022-12-07T11:07:48;3.55;;;2.05;;
43449;SDS011;29041;42.266;23.110;2022-12-07T11:10:47;3.30;;;2.20;;
43449;SDS011;29041;42.266;23.110;2022-12-07T11:13:41;3.30;;;1.70;;
43449;SDS011;29041;42.266;23.110;2022-12-07T11:16:40;1.38;;;1.05;;
43449;SDS011;29041;42.266;23.110;2022-12-07T11:19:42;5.93;;;0.95;;
43449;SDS011;29041;42.266;23.110;2022-12-07T11:22:40;3.08;;;1.48;;
43449;SDS011;29041;42.266;23.110;2022-12-07T11:25:35;4.60;;;2.13;;
43449;SDS011;29041;42.266;23.110;2022-12-07T11:28:32;5.60;;;1.70;;
43449;SDS011;29041;42.266;23.110;2022-12-07T11:31:33;3.50;;;1.50;;
43449;SDS011;29041;42.266;23.110;2022-12-07T11:34:33;2.58;;;1.20;;
43449;SDS011;29041;42.266;23.110;2022-12-07T11:37:27;2.13;;;1.48;;
43449;SDS011;29041;42.266;23.110;2022-12-07T11:40:20;4.45;;;2.22;;
43449;SDS011;29041;42.266;23.110;2022-12-07T11:43:17;2.75;;;1.58;;
43449;SDS011;29041;42.266;23.110;2022-12-07T11:46:11;3.40;;;2.17;;
43449;SDS011;29041;42.266;23.110;2022-12-07T11:49:02;3.20;;;2.05;;
43449;SDS011;29041;42.266;23.110;2022-12-07T11:51:59;3.05;;;1.80;;
43449;SDS011;29041;42.266;23.110;2022-12-07T11:54:51;4.25;;;2.38;;
43449;SDS011;29041;42.266;23.110;2022-12-07T11:57:41;14.10;;;5.70;;
43449;SDS011;29041;42.266;23.110;2022-12-07T12:00:33;4.43;;;1.88;;
43449;SDS011;29041;42.266;23.110;2022-12-07T12:03:22;4.18;;;1.92;;
43449;SDS011;29041;42.266;23.110;2022-12-07T12:06:17;4.78;;;1.65;;
43449;SDS011;29041;42.266;23.110;2022-12-07T12:09:12;5.15;;;1.90;;
43449;SDS011;29041;42.266;23.110;2022-12-07T12:12:06;1.75;;;1.17;;
43449;SDS011;29041;42.266;23.110;2022-12-07T12:15:18;3.10;;;1.80;;
43449;SDS011;29041;42.266;23.110;2022-12-07T12:18:22;2.42;;;1.35;;
43449;SDS011;29041;42.266;23.110;2022-12-07T12:21:19;2.05;;;1.48;;
43449;SDS011;29041;42.266;23.110;2022-12-07T12:24:12;3.70;;;2.15;;
43449;SDS011;29041;42.266;23.110;2022-12-07T12:27:05;7.15;;;1.63;;
43449;SDS011;29041;42.266;23.110;2022-12-07T12:29:55;2.55;;;1.70;;
43449;SDS011;29041;42.266;23.110;2022-12-07T12:32:45;13.50;;;2.47;;
43449;SDS011;29041;42.266;23.110;2022-12-07T12:35:34;6.43;;;2.30;;
43449;SDS011;29041;42.266;23.110;2022-12-07T12:38:27;2.78;;;1.25;;
43449;SDS011;29041;42.266;23.110;2022-12-07T12:45:05;4.43;;;2.05;;
43449;SDS011;29041;42.266;23.110;2022-12-07T12:48:36;3.42;;;1.75;;
43449;SDS011;29041;42.266;23.110;2022-12-07T12:51:36;4.18;;;2.22;;
43449;SDS011;29041;42.266;23.110;2022-12-07T12:54:26;3.63;;;2.05;;
43449;SDS011;29041;42.266;23.110;2022-12-07T12:57:17;3.85;;;2.42;;
43449;SDS011;29041;42.266;23.110;2022-12-07T13:00:16;3.70;;;2.00;;
43449;SDS011;29041;42.266;23.110;2022-12-07T13:03:16;4.13;;;2.65;;
43449;SDS011;29041;42.266;23.110;2022-12-07T13:09:24;5.97;;;2.15;;
43449;SDS011;29041;42.266;23.110;2022-12-07T13:12:16;3.47;;;1.63;;
43449;SDS011;29041;42.266;23.110;2022-12-07T13:15:22;3.72;;;2.10;;
43449;SDS011;29041;42.266;23.110;2022-12-07T13:18:22;4.95;;;2.70;;
43449;SDS011;29041;42.266;23.110;2022-12-07T13:24:28;7.82;;;2.38;;
43449;SDS011;29041;42.266;23.110;2022-12-07T13:27:20;6.47;;;2.40;;
43449;SDS011;29041;42.266;23.110;2022-12-07T13:30:11;5.43;;;2.25;;
43449;SDS011;29041;42.266;23.110;2022-12-07T13:33:03;3.78;;;2.25;;
43449;SDS011;29041;42.266;23.110;2022-12-07T13:35:53;8.95;;;4.63;;
43449;SDS011;29041;42.266;23.110;2022-12-07T13:38:47;7.18;;;2.42;;
43449;SDS011;29041;42.266;23.110;2022-12-07T13:41:36;5.68;;;3.67;;
43449;SDS011;29041;42.266;23.110;2022-12-07T13:44:34;4.30;;;2.03;;
43449;SDS011;29041;42.266;23.110;2022-12-07T13:47:30;5.72;;;2.78;;
43449;SDS011;29041;42.266;23.110;2022-12-07T13:50:24;5.68;;;2.58;;
43449;SDS011;29041;42.266;23.110;2022-12-07T13:53:12;4.97;;;3.10;;
43449;SDS011;29041;42.266;23.110;2022-12-07T13:56:00;7.55;;;2.50;;
43449;SDS011;29041;42.266;23.110;2022-12-07T13:58:48;12.13;;;5.78;;
43449;SDS011;29041;42.266;23.110;2022-12-07T14:01:36;10.65;;;3.70;;
43449;SDS011;29041;42.266;23.110;2022-12-07T14:04:31;8.40;;;4.00;;
43449;SDS011;29041;42.266;23.110;2022-12-07T14:07:24;4.80;;;2.30;;
43449;SDS011;29041;42.266;23.110;2022-12-07T14:10:22;8.70;;;4.50;;
43449;SDS011;29041;42.266;23.110;2022-12-07T14:13:22;5.53;;;2.92;;
43449;SDS011;29041;42.266;23.110;2022-12-07T14:16:23;5.53;;;3.13;;
43449;SDS011;29041;42.266;23.110;2022-12-07T14:22:36;5.00;;;2.53;;
43449;SDS011;29041;42.266;23.110;2022-12-07T14:25:25;7.03;;;3.58;;
43449;SDS011;29041;42.266;23.110;2022-12-07T14:28:24;10.68;;;2.97;;
43449;SDS011;29041;42.266;23.110;2022-12-07T14:31:13;10.32;;;3.97;;
43449;SDS011;29041;42.266;23.110;2022-12-07T14:34:02;12.00;;;4.38;;
43449;SDS011;29041;42.266;23.110;2022-12-07T14:36:55;5.88;;;3.55;;
43449;SDS011;29041;42.266;23.110;2022-12-07T14:39:42;30.50;;;5.82;;
43449;SDS011;29041;42.266;23.110;2022-12-07T14:42:30;8.48;;;3.88;;
43449;SDS011;29041;42.266;23.110;2022-12-07T14:45:19;7.63;;;3.83;;
43449;SDS011;29041;42.266;23.110;2022-12-07T14:48:09;8.65;;;4.75;;
43449;SDS011;29041;42.266;23.110;2022-12-07T14:50:58;8.77;;;3.78;;
43449;SDS011;29041;42.266;23.110;2022-12-07T14:53:52;20.05;;;6.18;;
43449;SDS011;29041;42.266;23.110;2022-12-07T14:56:41;12.77;;;4.45;;
43449;SDS011;29041;42.266;23.110;2022-12-07T14:59:31;5.47;;;3.67;;
43449;SDS011;29041;42.266;23.110;2022-12-07T15:02:18;8.77;;;3.92;;
43449;SDS011;29041;42.266;23.110;2022-12-07T15:05:05;9.32;;;4.18;;
43449;SDS011;29041;42.266;23.110;2022-12-07T15:07:53;6.82;;;4.03;;
43449;SDS011;29041;42.266;23.110;2022-12-07T15:10:42;22.90;;;13.88;;
43449;SDS011;29041;42.266;23.110;2022-12-07T15:13:29;14.73;;;7.10;;
43449;SDS011;29041;42.266;23.110;2022-12-07T15:16:34;9.93;;;4.88;;
43449;SDS011;29041;42.266;23.110;2022-12-07T15:19:22;12.27;;;7.90;;
43449;SDS011;29041;42.266;23.110;2022-12-07T15:22:11;6.32;;;3.88;;
43449;SDS011;29041;42.266;23.110;2022-12-07T15:24:58;13.18;;;8.45;;
43449;SDS011;29041;42.266;23.110;2022-12-07T15:27:47;29.98;;;15.93;;
43449;SDS011;29041;42.266;23.110;2022-12-07T15:30:36;6.25;;;3.92;;
43449;SDS011;29041;42.266;23.110;2022-12-07T15:33:23;6.28;;;3.40;;
43449;SDS011;29041;42.266;23.110;2022-12-07T15:36:19;6.80;;;4.07;;
43449;SDS011;29041;42.266;23.110;2022-12-07T15:39:08;10.68;;;4.32;;
43449;SDS011;29041;42.266;23.110;2022-12-07T15:41:55;8.32;;;3.90;;
43449;SDS011;29041;42.266;23.110;2022-12-07T15:44:44;11.95;;;4.50;;
43449;SDS011;29041;42.266;23.110;2022-12-07T15:47:49;10.68;;;5.40;;
43449;SDS011;29041;42.266;23.110;2022-12-07T15:50:36;22.48;;;10.25;;
43449;SDS011;29041;42.266;23.110;2022-12-07T15:53:23;28.63;;;10.65;;
43449;SDS011;29041;42.266;23.110;2022-12-07T15:56:10;24.40;;;9.93;;
43449;SDS011;29041;42.266;23.110;2022-12-07T15:58:58;27.27;;;10.85;;
43449;SDS011;29041;42.266;23.110;2022-12-07T16:01:49;16.42;;;6.22;;
43449;SDS011;29041;42.266;23.110;2022-12-07T16:04:36;43.80;;;19.02;;
43449;SDS011;29041;42.266;23.110;2022-12-07T16:07:23;18.30;;;8.43;;
43449;SDS011;29041;42.266;23.110;2022-12-07T16:10:10;21.25;;;9.98;;
43449;SDS011;29041;42.266;23.110;2022-12-07T16:12:57;19.92;;;9.95;;
43449;SDS011;29041;42.266;23.110;2022-12-07T16:15:45;14.05;;;7.13;;
43449;SDS011;29041;42.266;23.110;2022-12-07T16:18:33;13.27;;;5.65;;
43449;SDS011;29041;42.266;23.110;2022-12-07T16:21:20;16.10;;;6.47;;
43449;SDS011;29041;42.266;23.110;2022-12-07T16:24:10;12.40;;;6.47;;
43449;SDS011;29041;42.266;23.110;2022-12-07T16:26:58;9.75;;;4.90;;
43449;SDS011;29041;42.266;23.110;2022-12-07T16:29:45;24.63;;;11.52;;
43449;SDS011;29041;42.266;23.110;2022-12-07T16:32:38;18.45;;;7.25;;
43449;SDS011;29041;42.266;23.110;2022-12-07T16:35:26;8.70;;;5.18;;
43449;SDS011;29041;42.266;23.110;2022-12-07T16:38:14;14.90;;;6.40;;
43449;SDS011;29041;42.266;23.110;2022-12-07T16:41:01;14.35;;;7.75;;
43449;SDS011;29041;42.266;23.110;2022-12-07T16:43:48;13.65;;;7.65;;
43449;SDS011;29041;42.266;23.110;2022-12-07T16:46:36;13.93;;;7.82;;
43449;SDS011;29041;42.266;23.110;2022-12-07T16:49:23;11.25;;;6.82;;
43449;SDS011;29041;42.266;23.110;2022-12-07T16:52:12;20.83;;;9.55;;
43449;SDS011;29041;42.266;23.110;2022-12-07T16:54:59;19.70;;;9.55;;
43449;SDS011;29041;42.266;23.110;2022-12-07T16:57:46;24.25;;;10.50;;
43449;SDS011;29041;42.266;23.110;2022-12-07T17:00:36;15.25;;;7.20;;